sensor_id;sensor_type;location;lat;lon;timestamp;temperature;humidity
24164;DHT22;12319;49.204;8.116;2023-02-26T00:02:16;1.90;61.80
24164;DHT22;12319;49.204;8.116;2023-02-26T00:04:42;1.90;61.80
24164;DHT22;12319;49.204;8.116;2023-02-26T00:07:07;1.90;61.80
24164;DHT22;12319;49.204;8.116;2023-02-26T00:09:33;1.90;61.80
24164;DHT22;12319;49.204;8.116;2023-02-26T00:11:59;1.90;61.90
24164;DHT22;12319;49.204;8.116;2023-02-26T00:14:25;1.90;61.80
24164;DHT22;12319;49.204;8.116;2023-02-26T00:17:18;1.80;61.70
24164;DHT22;12319;49.204;8.116;2023-02-26T00:19:46;1.80;61.70
24164;DHT22;12319;49.204;8.116;2023-02-26T00:22:12;1.80;61.70
24164;DHT22;12319;49.204;8.116;2023-02-26T00:24:38;1.80;61.70
24164;DHT22;12319;49.204;8.116;2023-02-26T00:27:03;1.80;61.70
24164;DHT22;12319;49.204;8.116;2023-02-26T00:29:29;1.80;61.70
24164;DHT22;12319;49.204;8.116;2023-02-26T00:31:55;1.80;61.70
24164;DHT22;12319;49.204;8.116;2023-02-26T00:34:21;1.70;61.80
24164;DHT22;12319;49.204;8.116;2023-02-26T00:42:12;1.70;61.80
24164;DHT22;12319;49.204;8.116;2023-02-26T00:44:39;1.70;61.80
24164;DHT22;12319;49.204;8.116;2023-02-26T00:49:55;1.70;61.80
24164;DHT22;12319;49.204;8.116;2023-02-26T00:53:01;1.70;61.90
24164;DHT22;12319;49.204;8.116;2023-02-26T00:55:27;1.70;61.90
24164;DHT22;12319;49.204;8.116;2023-02-26T00:57:53;1.70;62.10
24164;DHT22;12319;49.204;8.116;2023-02-26T01:00:19;1.70;62.00
24164;DHT22;12319;49.204;8.116;2023-02-26T01:02:46;1.70;61.90
24164;DHT22;12319;49.204;8.116;2023-02-26T01:05:12;1.70;61.90
24164;DHT22;12319;49.204;8.116;2023-02-26T01:07:51;1.70;61.80
24164;DHT22;12319;49.204;8.116;2023-02-26T01:10:19;1.70;62.00
24164;DHT22;12319;49.204;8.116;2023-02-26T01:12:45;1.70;62.20
24164;DHT22;12319;49.204;8.116;2023-02-26T01:15:11;1.50;62.10
24164;DHT22;12319;49.204;8.116;2023-02-26T01:17:50;1.70;62.30
24164;DHT22;12319;49.204;8.116;2023-02-26T01:20:21;1.60;62.40
24164;DHT22;12319;49.204;8.116;2023-02-26T01:22:56;1.60;62.30
24164;DHT22;12319;49.204;8.116;2023-02-26T01:25:34;1.60;62.40
24164;DHT22;12319;49.204;8.116;2023-02-26T01:28:01;1.70;62.60
24164;DHT22;12319;49.204;8.116;2023-02-26T01:30:27;1.70;62.50
24164;DHT22;12319;49.204;8.116;2023-02-26T01:32:57;1.70;62.60
24164;DHT22;12319;49.204;8.116;2023-02-26T01:35:39;1.60;62.60
24164;DHT22;12319;49.204;8.116;2023-02-26T01:38:16;1.70;62.80
24164;DHT22;12319;49.204;8.116;2023-02-26T01:44:02;1.60;62.80
24164;DHT22;12319;49.204;8.116;2023-02-26T01:49:26;1.60;63.00
24164;DHT22;12319;49.204;8.116;2023-02-26T01:54:24;1.60;63.10
24164;DHT22;12319;49.204;8.116;2023-02-26T01:56:55;1.60;63.10
24164;DHT22;12319;49.204;8.116;2023-02-26T01:59:21;1.60;63.20
24164;DHT22;12319;49.204;8.116;2023-02-26T02:01:53;1.60;63.20
24164;DHT22;12319;49.204;8.116;2023-02-26T02:04:19;1.60;63.20
24164;DHT22;12319;49.204;8.116;2023-02-26T02:06:45;1.60;63.30
24164;DHT22;12319;49.204;8.116;2023-02-26T02:09:11;1.60;63.30
24164;DHT22;12319;49.204;8.116;2023-02-26T02:17:33;1.60;63.50
24164;DHT22;12319;49.204;8.116;2023-02-26T02:28:18;1.60;63.90
24164;DHT22;12319;49.204;8.116;2023-02-26T02:33:43;1.60;63.90
24164;DHT22;12319;49.204;8.116;2023-02-26T02:36:38;1.60;64.00
24164;DHT22;12319;49.204;8.116;2023-02-26T02:39:12;1.60;64.10
24164;DHT22;12319;49.204;8.116;2023-02-26T02:42:27;1.60;64.30
24164;DHT22;12319;49.204;8.116;2023-02-26T02:44:36;1.60;64.30
24164;DHT22;12319;49.204;8.116;2023-02-26T02:47:05;1.60;64.30
24164;DHT22;12319;49.204;8.116;2023-02-26T02:49:44;1.60;64.30
24164;DHT22;12319;49.204;8.116;2023-02-26T02:52:21;1.60;64.40
24164;DHT22;12319;49.204;8.116;2023-02-26T02:55:01;1.60;64.50
24164;DHT22;12319;49.204;8.116;2023-02-26T02:57:37;1.60;64.50
24164;DHT22;12319;49.204;8.116;2023-02-26T03:00:06;1.60;64.60
24164;DHT22;12319;49.204;8.116;2023-02-26T03:05:38;1.50;64.50
24164;DHT22;12319;49.204;8.116;2023-02-26T03:08:09;1.60;64.60
24164;DHT22;12319;49.204;8.116;2023-02-26T03:10:35;1.50;65.30
24164;DHT22;12319;49.204;8.116;2023-02-26T03:13:01;1.50;64.70
24164;DHT22;12319;49.204;8.116;2023-02-26T03:15:36;1.50;64.80
24164;DHT22;12319;49.204;8.116;2023-02-26T03:21:06;1.40;64.90
24164;DHT22;12319;49.204;8.116;2023-02-26T03:23:40;1.50;65.00
24164;DHT22;12319;49.204;8.116;2023-02-26T03:26:15;1.40;64.90
24164;DHT22;12319;49.204;8.116;2023-02-26T03:29:05;1.40;65.00
24164;DHT22;12319;49.204;8.116;2023-02-26T03:31:54;1.40;65.10
24164;DHT22;12319;49.204;8.116;2023-02-26T03:34:29;1.40;65.10
24164;DHT22;12319;49.204;8.116;2023-02-26T03:37:03;1.40;65.10
24164;DHT22;12319;49.204;8.116;2023-02-26T03:39:37;1.40;65.10
24164;DHT22;12319;49.204;8.116;2023-02-26T03:42:04;1.40;65.20
24164;DHT22;12319;49.204;8.116;2023-02-26T03:44:44;1.40;65.30
24164;DHT22;12319;49.204;8.116;2023-02-26T03:47:14;1.40;65.30
24164;DHT22;12319;49.204;8.116;2023-02-26T03:49:51;1.40;65.40
24164;DHT22;12319;49.204;8.116;2023-02-26T03:52:20;1.40;65.30
24164;DHT22;12319;49.204;8.116;2023-02-26T03:54:54;1.40;65.30
24164;DHT22;12319;49.204;8.116;2023-02-26T03:57:21;1.40;65.40
24164;DHT22;12319;49.204;8.116;2023-02-26T03:59:47;1.40;65.50
24164;DHT22;12319;49.204;8.116;2023-02-26T04:02:24;1.30;65.40
24164;DHT22;12319;49.204;8.116;2023-02-26T04:05:15;1.30;65.40
24164;DHT22;12319;49.204;8.116;2023-02-26T04:07:41;1.30;65.60
24164;DHT22;12319;49.204;8.116;2023-02-26T04:10:10;1.30;65.60
24164;DHT22;12319;49.204;8.116;2023-02-26T04:12:38;1.30;65.60
24164;DHT22;12319;49.204;8.116;2023-02-26T04:15:04;1.30;65.60
24164;DHT22;12319;49.204;8.116;2023-02-26T04:17:30;1.30;65.60
24164;DHT22;12319;49.204;8.116;2023-02-26T04:19:55;1.30;65.80
24164;DHT22;12319;49.204;8.116;2023-02-26T04:22:21;1.20;65.70
24164;DHT22;12319;49.204;8.116;2023-02-26T04:24:46;1.20;65.80
24164;DHT22;12319;49.204;8.116;2023-02-26T04:27:12;1.20;65.80
24164;DHT22;12319;49.204;8.116;2023-02-26T04:29:37;1.20;65.80
24164;DHT22;12319;49.204;8.116;2023-02-26T04:32:03;1.10;65.70
24164;DHT22;12319;49.204;8.116;2023-02-26T04:34:28;1.10;66.00
24164;DHT22;12319;49.204;8.116;2023-02-26T04:36:54;1.10;65.90
24164;DHT22;12319;49.204;8.116;2023-02-26T04:39:19;1.10;66.00
24164;DHT22;12319;49.204;8.116;2023-02-26T04:41:45;1.00;65.90
24164;DHT22;12319;49.204;8.116;2023-02-26T04:44:10;1.00;66.00
24164;DHT22;12319;49.204;8.116;2023-02-26T04:46:36;0.90;66.10
24164;DHT22;12319;49.204;8.116;2023-02-26T04:49:02;0.90;66.30
24164;DHT22;12319;49.204;8.116;2023-02-26T04:51:27;0.90;66.40
24164;DHT22;12319;49.204;8.116;2023-02-26T04:53:53;0.90;66.50
24164;DHT22;12319;49.204;8.116;2023-02-26T04:56:18;0.90;66.60
24164;DHT22;12319;49.204;8.116;2023-02-26T04:58:44;0.80;66.60
24164;DHT22;12319;49.204;8.116;2023-02-26T05:01:10;0.80;66.70
24164;DHT22;12319;49.204;8.116;2023-02-26T05:03:38;0.80;66.90
24164;DHT22;12319;49.204;8.116;2023-02-26T05:06:03;0.80;66.90
24164;DHT22;12319;49.204;8.116;2023-02-26T05:08:29;0.80;67.20
24164;DHT22;12319;49.204;8.116;2023-02-26T05:10:55;0.70;67.50
24164;DHT22;12319;49.204;8.116;2023-02-26T05:13:20;0.70;67.80
24164;DHT22;12319;49.204;8.116;2023-02-26T05:15:46;0.70;68.00
24164;DHT22;12319;49.204;8.116;2023-02-26T05:18:12;0.70;68.60
24164;DHT22;12319;49.204;8.116;2023-02-26T05:20:38;0.70;68.80
24164;DHT22;12319;49.204;8.116;2023-02-26T05:23:04;0.60;68.80
24164;DHT22;12319;49.204;8.116;2023-02-26T05:25:29;0.60;69.00
24164;DHT22;12319;49.204;8.116;2023-02-26T05:27:55;0.60;69.20
24164;DHT22;12319;49.204;8.116;2023-02-26T05:30:21;0.60;69.30
24164;DHT22;12319;49.204;8.116;2023-02-26T05:32:46;0.60;69.40
24164;DHT22;12319;49.204;8.116;2023-02-26T05:35:12;0.60;69.70
24164;DHT22;12319;49.204;8.116;2023-02-26T05:37:38;0.60;69.70
24164;DHT22;12319;49.204;8.116;2023-02-26T05:40:06;0.60;69.70
24164;DHT22;12319;49.204;8.116;2023-02-26T05:42:36;0.60;69.80
24164;DHT22;12319;49.204;8.116;2023-02-26T05:45:03;0.50;70.10
24164;DHT22;12319;49.204;8.116;2023-02-26T05:47:31;0.50;70.80
24164;DHT22;12319;49.204;8.116;2023-02-26T05:49:56;0.50;70.80
24164;DHT22;12319;49.204;8.116;2023-02-26T05:52:22;0.50;71.30
24164;DHT22;12319;49.204;8.116;2023-02-26T05:54:47;0.50;71.40
24164;DHT22;12319;49.204;8.116;2023-02-26T05:57:13;0.50;71.70
24164;DHT22;12319;49.204;8.116;2023-02-26T05:59:39;0.40;71.60
24164;DHT22;12319;49.204;8.116;2023-02-26T06:02:04;0.40;72.00
24164;DHT22;12319;49.204;8.116;2023-02-26T06:04:30;0.40;72.00
24164;DHT22;12319;49.204;8.116;2023-02-26T06:06:55;0.40;72.10
24164;DHT22;12319;49.204;8.116;2023-02-26T06:09:21;0.40;72.40
24164;DHT22;12319;49.204;8.116;2023-02-26T06:11:46;0.40;72.40
24164;DHT22;12319;49.204;8.116;2023-02-26T06:14:12;0.40;72.60
24164;DHT22;12319;49.204;8.116;2023-02-26T06:16:37;0.40;72.40
24164;DHT22;12319;49.204;8.116;2023-02-26T06:19:03;0.40;72.50
24164;DHT22;12319;49.204;8.116;2023-02-26T06:21:29;0.40;72.70
24164;DHT22;12319;49.204;8.116;2023-02-26T06:23:54;0.40;73.30
24164;DHT22;12319;49.204;8.116;2023-02-26T06:26:20;0.40;72.80
24164;DHT22;12319;49.204;8.116;2023-02-26T06:28:45;0.40;72.80
24164;DHT22;12319;49.204;8.116;2023-02-26T06:31:11;0.40;73.10
24164;DHT22;12319;49.204;8.116;2023-02-26T06:33:36;0.40;73.20
24164;DHT22;12319;49.204;8.116;2023-02-26T06:36:02;0.50;74.00
24164;DHT22;12319;49.204;8.116;2023-02-26T06:38:28;0.50;73.90
24164;DHT22;12319;49.204;8.116;2023-02-26T06:40:54;0.50;73.70
24164;DHT22;12319;49.204;8.116;2023-02-26T06:43:20;0.50;73.30
24164;DHT22;12319;49.204;8.116;2023-02-26T06:45:46;0.60;73.50
24164;DHT22;12319;49.204;8.116;2023-02-26T06:48:11;0.50;73.30
24164;DHT22;12319;49.204;8.116;2023-02-26T06:50:37;0.60;73.70
24164;DHT22;12319;49.204;8.116;2023-02-26T06:53:03;0.60;73.50
24164;DHT22;12319;49.204;8.116;2023-02-26T06:55:30;0.60;74.10
24164;DHT22;12319;49.204;8.116;2023-02-26T06:57:56;0.60;73.40
24164;DHT22;12319;49.204;8.116;2023-02-26T07:00:23;0.60;73.60
24164;DHT22;12319;49.204;8.116;2023-02-26T07:02:50;0.60;73.90
24164;DHT22;12319;49.204;8.116;2023-02-26T07:05:16;0.60;74.10
24164;DHT22;12319;49.204;8.116;2023-02-26T07:07:42;0.60;74.00
24164;DHT22;12319;49.204;8.116;2023-02-26T07:10:09;0.60;73.50
24164;DHT22;12319;49.204;8.116;2023-02-26T07:12:35;0.60;73.80
24164;DHT22;12319;49.204;8.116;2023-02-26T07:15:03;0.60;73.80
24164;DHT22;12319;49.204;8.116;2023-02-26T07:17:29;0.70;73.60
24164;DHT22;12319;49.204;8.116;2023-02-26T07:19:54;0.80;74.10
24164;DHT22;12319;49.204;8.116;2023-02-26T07:22:20;0.90;74.10
24164;DHT22;12319;49.204;8.116;2023-02-26T07:24:45;1.00;74.20
24164;DHT22;12319;49.204;8.116;2023-02-26T07:27:11;1.10;73.90
24164;DHT22;12319;49.204;8.116;2023-02-26T07:29:37;1.10;73.90
24164;DHT22;12319;49.204;8.116;2023-02-26T07:32:03;1.20;73.90
24164;DHT22;12319;49.204;8.116;2023-02-26T07:34:29;1.30;73.40
24164;DHT22;12319;49.204;8.116;2023-02-26T07:36:55;1.30;73.90
24164;DHT22;12319;49.204;8.116;2023-02-26T07:39:20;1.40;73.50
24164;DHT22;12319;49.204;8.116;2023-02-26T07:41:46;1.50;73.40
24164;DHT22;12319;49.204;8.116;2023-02-26T07:44:11;1.60;73.20
24164;DHT22;12319;49.204;8.116;2023-02-26T07:46:37;1.80;73.00
24164;DHT22;12319;49.204;8.116;2023-02-26T07:49:02;1.80;72.90
24164;DHT22;12319;49.204;8.116;2023-02-26T07:51:28;1.90;72.70
24164;DHT22;12319;49.204;8.116;2023-02-26T07:53:53;1.90;72.60
24164;DHT22;12319;49.204;8.116;2023-02-26T07:56:19;2.00;72.30
24164;DHT22;12319;49.204;8.116;2023-02-26T07:58:45;2.10;72.10
24164;DHT22;12319;49.204;8.116;2023-02-26T08:01:10;2.20;72.10
24164;DHT22;12319;49.204;8.116;2023-02-26T08:03:36;2.30;71.90
24164;DHT22;12319;49.204;8.116;2023-02-26T08:06:02;2.50;71.40
24164;DHT22;12319;49.204;8.116;2023-02-26T08:08:29;2.60;71.10
24164;DHT22;12319;49.204;8.116;2023-02-26T08:10:55;2.80;71.00
24164;DHT22;12319;49.204;8.116;2023-02-26T08:13:20;3.00;70.80
24164;DHT22;12319;49.204;8.116;2023-02-26T08:15:49;3.10;70.90
24164;DHT22;12319;49.204;8.116;2023-02-26T08:18:14;3.40;71.30
24164;DHT22;12319;49.204;8.116;2023-02-26T08:20:40;3.80;71.00
24164;DHT22;12319;49.204;8.116;2023-02-26T08:23:06;4.50;70.40
24164;DHT22;12319;49.204;8.116;2023-02-26T08:25:31;4.80;68.90
24164;DHT22;12319;49.204;8.116;2023-02-26T08:27:57;4.90;67.70
24164;DHT22;12319;49.204;8.116;2023-02-26T08:30:23;5.00;67.40
24164;DHT22;12319;49.204;8.116;2023-02-26T08:32:49;4.90;67.00
24164;DHT22;12319;49.204;8.116;2023-02-26T08:35:15;5.00;66.90
24164;DHT22;12319;49.204;8.116;2023-02-26T08:37:40;4.90;66.00
24164;DHT22;12319;49.204;8.116;2023-02-26T08:40:07;4.80;66.20
24164;DHT22;12319;49.204;8.116;2023-02-26T08:42:34;4.70;66.50
24164;DHT22;12319;49.204;8.116;2023-02-26T08:44:59;4.70;66.90
24164;DHT22;12319;49.204;8.116;2023-02-26T08:47:25;4.70;66.70
24164;DHT22;12319;49.204;8.116;2023-02-26T08:49:50;4.70;66.50
24164;DHT22;12319;49.204;8.116;2023-02-26T08:52:16;4.80;66.40
24164;DHT22;12319;49.204;8.116;2023-02-26T08:54:41;4.80;66.40
24164;DHT22;12319;49.204;8.116;2023-02-26T08:57:07;4.80;66.20
24164;DHT22;12319;49.204;8.116;2023-02-26T08:59:32;4.70;65.40
24164;DHT22;12319;49.204;8.116;2023-02-26T09:01:58;4.60;65.80
24164;DHT22;12319;49.204;8.116;2023-02-26T09:04:24;4.50;65.60
24164;DHT22;12319;49.204;8.116;2023-02-26T09:06:51;4.50;65.50
24164;DHT22;12319;49.204;8.116;2023-02-26T09:09:17;4.30;64.60
24164;DHT22;12319;49.204;8.116;2023-02-26T09:11:44;4.10;65.10
24164;DHT22;12319;49.204;8.116;2023-02-26T09:14:09;4.00;65.70
24164;DHT22;12319;49.204;8.116;2023-02-26T09:16:35;3.90;65.80
24164;DHT22;12319;49.204;8.116;2023-02-26T09:19:02;3.90;66.10
24164;DHT22;12319;49.204;8.116;2023-02-26T09:21:28;4.00;66.30
24164;DHT22;12319;49.204;8.116;2023-02-26T09:23:54;4.30;66.70
24164;DHT22;12319;49.204;8.116;2023-02-26T09:26:20;4.80;66.60
24164;DHT22;12319;49.204;8.116;2023-02-26T09:28:45;5.30;65.60
24164;DHT22;12319;49.204;8.116;2023-02-26T09:31:11;5.60;63.50
24164;DHT22;12319;49.204;8.116;2023-02-26T09:33:36;5.90;63.00
24164;DHT22;12319;49.204;8.116;2023-02-26T09:36:02;5.80;61.40
24164;DHT22;12319;49.204;8.116;2023-02-26T09:38:28;5.60;61.60
24164;DHT22;12319;49.204;8.116;2023-02-26T09:41:01;5.40;61.80
24164;DHT22;12319;49.204;8.116;2023-02-26T09:46:14;5.00;63.10
24164;DHT22;12319;49.204;8.116;2023-02-26T09:48:43;4.90;63.50
24164;DHT22;12319;49.204;8.116;2023-02-26T09:51:17;4.80;63.30
24164;DHT22;12319;49.204;8.116;2023-02-26T09:53:44;4.90;63.80
24164;DHT22;12319;49.204;8.116;2023-02-26T09:56:22;5.00;63.10
24164;DHT22;12319;49.204;8.116;2023-02-26T09:58:49;5.20;63.40
24164;DHT22;12319;49.204;8.116;2023-02-26T10:10:06;5.50;62.80
24164;DHT22;12319;49.204;8.116;2023-02-26T10:12:35;5.60;62.50
24164;DHT22;12319;49.204;8.116;2023-02-26T10:21:03;5.60;60.40
24164;DHT22;12319;49.204;8.116;2023-02-26T10:23:41;5.60;60.70
24164;DHT22;12319;49.204;8.116;2023-02-26T10:26:12;5.70;61.50
24164;DHT22;12319;49.204;8.116;2023-02-26T10:34:20;5.50;59.50
24164;DHT22;12319;49.204;8.116;2023-02-26T10:36:57;5.30;59.30
24164;DHT22;12319;49.204;8.116;2023-02-26T10:39:58;5.20;59.50
24164;DHT22;12319;49.204;8.116;2023-02-26T10:42:42;5.10;59.40
24164;DHT22;12319;49.204;8.116;2023-02-26T10:48:09;4.90;60.20
24164;DHT22;12319;49.204;8.116;2023-02-26T10:50:38;4.80;60.40
24164;DHT22;12319;49.204;8.116;2023-02-26T10:53:10;4.90;60.50
24164;DHT22;12319;49.204;8.116;2023-02-26T10:55:58;4.80;60.70
24164;DHT22;12319;49.204;8.116;2023-02-26T10:58:27;4.90;61.40
24164;DHT22;12319;49.204;8.116;2023-02-26T11:00:54;4.90;61.30
24164;DHT22;12319;49.204;8.116;2023-02-26T11:03:31;4.70;61.10
24164;DHT22;12319;49.204;8.116;2023-02-26T11:05:57;4.60;61.50
24164;DHT22;12319;49.204;8.116;2023-02-26T11:08:25;4.50;61.00
24164;DHT22;12319;49.204;8.116;2023-02-26T11:10:56;4.40;61.70
24164;DHT22;12319;49.204;8.116;2023-02-26T11:13:24;4.30;61.70
24164;DHT22;12319;49.204;8.116;2023-02-26T11:15:54;4.30;61.60
24164;DHT22;12319;49.204;8.116;2023-02-26T11:18:30;4.30;61.40
24164;DHT22;12319;49.204;8.116;2023-02-26T11:20:58;4.30;61.60
24164;DHT22;12319;49.204;8.116;2023-02-26T11:23:27;4.20;61.60
24164;DHT22;12319;49.204;8.116;2023-02-26T11:26:02;4.20;61.50
24164;DHT22;12319;49.204;8.116;2023-02-26T11:28:41;4.20;62.00
24164;DHT22;12319;49.204;8.116;2023-02-26T11:31:09;4.20;62.00
24164;DHT22;12319;49.204;8.116;2023-02-26T11:33:42;4.10;61.80
24164;DHT22;12319;49.204;8.116;2023-02-26T11:36:15;4.10;61.80
24164;DHT22;12319;49.204;8.116;2023-02-26T11:38:51;4.10;61.80
24164;DHT22;12319;49.204;8.116;2023-02-26T11:41:16;4.00;61.40
24164;DHT22;12319;49.204;8.116;2023-02-26T11:43:45;4.00;61.60
24164;DHT22;12319;49.204;8.116;2023-02-26T11:46:12;4.10;61.70
24164;DHT22;12319;49.204;8.116;2023-02-26T11:48:45;4.00;61.40
24164;DHT22;12319;49.204;8.116;2023-02-26T11:51:18;4.10;61.50
24164;DHT22;12319;49.204;8.116;2023-02-26T11:53:52;4.10;61.60
24164;DHT22;12319;49.204;8.116;2023-02-26T11:56:40;4.20;61.50
24164;DHT22;12319;49.204;8.116;2023-02-26T11:59:23;4.30;61.60
24164;DHT22;12319;49.204;8.116;2023-02-26T12:01:50;4.50;61.00
24164;DHT22;12319;49.204;8.116;2023-02-26T12:04:21;4.50;61.00
24164;DHT22;12319;49.204;8.116;2023-02-26T12:06:50;4.50;61.10
24164;DHT22;12319;49.204;8.116;2023-02-26T12:09:16;4.60;60.40
24164;DHT22;12319;49.204;8.116;2023-02-26T12:11:50;4.50;60.00
24164;DHT22;12319;49.204;8.116;2023-02-26T12:17:37;4.50;59.50
24164;DHT22;12319;49.204;8.116;2023-02-26T12:20:26;4.40;59.50
24164;DHT22;12319;49.204;8.116;2023-02-26T12:23:15;4.30;60.00
24164;DHT22;12319;49.204;8.116;2023-02-26T12:28:54;4.40;60.40
24164;DHT22;12319;49.204;8.116;2023-02-26T12:40:04;4.50;60.30
24164;DHT22;12319;49.204;8.116;2023-02-26T12:45:44;4.60;59.30
24164;DHT22;12319;49.204;8.116;2023-02-26T12:59:55;4.90;58.90
24164;DHT22;12319;49.204;8.116;2023-02-26T13:13:36;4.80;59.30
24164;DHT22;12319;49.204;8.116;2023-02-26T13:16:19;4.70;59.70
24164;DHT22;12319;49.204;8.116;2023-02-26T13:19:15;4.70;60.30
24164;DHT22;12319;49.204;8.116;2023-02-26T13:22:01;4.60;59.90
24164;DHT22;12319;49.204;8.116;2023-02-26T13:24:38;4.70;60.90
24164;DHT22;12319;49.204;8.116;2023-02-26T13:27:07;4.70;61.60
24164;DHT22;12319;49.204;8.116;2023-02-26T13:30:16;4.60;62.40
24164;DHT22;12319;49.204;8.116;2023-02-26T13:32:43;4.60;62.60
24164;DHT22;12319;49.204;8.116;2023-02-26T13:35:24;4.60;62.90
24164;DHT22;12319;49.204;8.116;2023-02-26T13:37:56;4.60;63.00
24164;DHT22;12319;49.204;8.116;2023-02-26T13:43:19;4.80;61.80
24164;DHT22;12319;49.204;8.116;2023-02-26T13:48:41;5.00;61.30
24164;DHT22;12319;49.204;8.116;2023-02-26T13:51:26;5.20;61.00
24164;DHT22;12319;49.204;8.116;2023-02-26T13:53:57;5.20;60.00
24164;DHT22;12319;49.204;8.116;2023-02-26T13:59:46;5.30;58.70
24164;DHT22;12319;49.204;8.116;2023-02-26T14:04:52;5.20;58.30
24164;DHT22;12319;49.204;8.116;2023-02-26T14:10:42;5.20;56.10
24164;DHT22;12319;49.204;8.116;2023-02-26T14:13:18;5.30;56.60
24164;DHT22;12319;49.204;8.116;2023-02-26T14:16:22;5.30;56.60
24164;DHT22;12319;49.204;8.116;2023-02-26T14:27:02;5.60;55.80
24164;DHT22;12319;49.204;8.116;2023-02-26T14:35:28;5.50;53.80
24164;DHT22;12319;49.204;8.116;2023-02-26T14:38:03;5.50;55.30
24164;DHT22;12319;49.204;8.116;2023-02-26T14:40:34;5.50;54.40
24164;DHT22;12319;49.204;8.116;2023-02-26T14:43:03;5.50;54.70
24164;DHT22;12319;49.204;8.116;2023-02-26T14:45:38;5.40;54.30
24164;DHT22;12319;49.204;8.116;2023-02-26T14:48:06;5.40;54.80
24164;DHT22;12319;49.204;8.116;2023-02-26T14:59:07;5.50;56.40
24164;DHT22;12319;49.204;8.116;2023-02-26T15:01:51;5.50;56.40
24164;DHT22;12319;49.204;8.116;2023-02-26T15:10:32;5.40;53.90
24164;DHT22;12319;49.204;8.116;2023-02-26T15:21:55;5.30;53.30
24164;DHT22;12319;49.204;8.116;2023-02-26T15:24:25;5.30;53.60
24164;DHT22;12319;49.204;8.116;2023-02-26T15:26:54;5.30;54.00
24164;DHT22;12319;49.204;8.116;2023-02-26T15:29:30;5.30;55.10
24164;DHT22;12319;49.204;8.116;2023-02-26T15:35:18;5.20;53.40
24164;DHT22;12319;49.204;8.116;2023-02-26T15:38:03;5.20;53.50
24164;DHT22;12319;49.204;8.116;2023-02-26T15:40:34;5.10;54.30
24164;DHT22;12319;49.204;8.116;2023-02-26T15:43:01;5.10;54.30
24164;DHT22;12319;49.204;8.116;2023-02-26T15:45:42;5.10;55.10
24164;DHT22;12319;49.204;8.116;2023-02-26T15:48:13;5.10;54.60
24164;DHT22;12319;49.204;8.116;2023-02-26T15:50:42;5.00;54.00
24164;DHT22;12319;49.204;8.116;2023-02-26T15:53:12;4.90;53.80
24164;DHT22;12319;49.204;8.116;2023-02-26T15:55:48;4.90;53.40
24164;DHT22;12319;49.204;8.116;2023-02-26T15:58:32;4.90;54.10
24164;DHT22;12319;49.204;8.116;2023-02-26T16:01:00;4.80;55.00
24164;DHT22;12319;49.204;8.116;2023-02-26T16:03:35;4.80;55.10
24164;DHT22;12319;49.204;8.116;2023-02-26T16:06:02;4.70;53.50
24164;DHT22;12319;49.204;8.116;2023-02-26T16:08:28;4.70;53.90
24164;DHT22;12319;49.204;8.116;2023-02-26T16:10:56;4.60;53.70
24164;DHT22;12319;49.204;8.116;2023-02-26T16:13:31;4.50;54.30
24164;DHT22;12319;49.204;8.116;2023-02-26T16:16:00;4.40;54.30
24164;DHT22;12319;49.204;8.116;2023-02-26T16:18:29;4.40;54.80
24164;DHT22;12319;49.204;8.116;2023-02-26T16:20:55;4.30;54.70
24164;DHT22;12319;49.204;8.116;2023-02-26T16:23:28;4.30;54.70
24164;DHT22;12319;49.204;8.116;2023-02-26T16:26:00;4.30;54.70
24164;DHT22;12319;49.204;8.116;2023-02-26T16:28:35;4.20;54.60
24164;DHT22;12319;49.204;8.116;2023-02-26T16:31:03;4.20;54.60
24164;DHT22;12319;49.204;8.116;2023-02-26T16:33:32;4.20;54.70
24164;DHT22;12319;49.204;8.116;2023-02-26T16:36:45;4.20;54.10
24164;DHT22;12319;49.204;8.116;2023-02-26T16:39:16;4.20;53.90
24164;DHT22;12319;49.204;8.116;2023-02-26T16:41:47;4.20;54.60
24164;DHT22;12319;49.204;8.116;2023-02-26T16:46:54;4.10;54.60
24164;DHT22;12319;49.204;8.116;2023-02-26T16:49:25;4.10;55.50
24164;DHT22;12319;49.204;8.116;2023-02-26T16:51:51;4.10;56.00
24164;DHT22;12319;49.204;8.116;2023-02-26T16:54:28;4.10;56.40
24164;DHT22;12319;49.204;8.116;2023-02-26T16:56:58;4.10;56.90
24164;DHT22;12319;49.204;8.116;2023-02-26T16:59:27;4.10;57.30
24164;DHT22;12319;49.204;8.116;2023-02-26T17:02:16;4.00;57.30
24164;DHT22;12319;49.204;8.116;2023-02-26T17:04:45;4.00;57.50
24164;DHT22;12319;49.204;8.116;2023-02-26T17:07:19;4.00;57.10
24164;DHT22;12319;49.204;8.116;2023-02-26T17:09:50;4.00;56.40
24164;DHT22;12319;49.204;8.116;2023-02-26T17:14:44;3.90;56.60
24164;DHT22;12319;49.204;8.116;2023-02-26T17:17:10;3.90;56.30
24164;DHT22;12319;49.204;8.116;2023-02-26T17:19:36;3.90;56.30
24164;DHT22;12319;49.204;8.116;2023-02-26T17:22:02;3.90;56.40
24164;DHT22;12319;49.204;8.116;2023-02-26T17:26:56;3.90;56.50
24164;DHT22;12319;49.204;8.116;2023-02-26T17:29:47;3.90;55.90
24164;DHT22;12319;49.204;8.116;2023-02-26T17:32:17;3.90;56.30
24164;DHT22;12319;49.204;8.116;2023-02-26T17:34:44;3.90;56.40
24164;DHT22;12319;49.204;8.116;2023-02-26T17:37:13;3.90;56.30
24164;DHT22;12319;49.204;8.116;2023-02-26T17:39:39;3.90;56.30
24164;DHT22;12319;49.204;8.116;2023-02-26T17:42:13;3.90;56.20
24164;DHT22;12319;49.204;8.116;2023-02-26T17:44:39;3.90;56.60
24164;DHT22;12319;49.204;8.116;2023-02-26T17:47:08;4.20;56.50
24164;DHT22;12319;49.204;8.116;2023-02-26T17:49:33;3.90;56.40
24164;DHT22;12319;49.204;8.116;2023-02-26T17:51:59;3.90;56.60
24164;DHT22;12319;49.204;8.116;2023-02-26T17:54:24;3.90;56.50
24164;DHT22;12319;49.204;8.116;2023-02-26T17:56:50;3.90;56.40
24164;DHT22;12319;49.204;8.116;2023-02-26T17:59:16;3.80;56.50
24164;DHT22;12319;49.204;8.116;2023-02-26T18:01:41;3.80;56.60
24164;DHT22;12319;49.204;8.116;2023-02-26T18:04:07;3.80;56.60
24164;DHT22;12319;49.204;8.116;2023-02-26T18:06:36;3.80;56.60
24164;DHT22;12319;49.204;8.116;2023-02-26T18:09:03;3.70;56.70
24164;DHT22;12319;49.204;8.116;2023-02-26T18:11:30;3.70;56.80
24164;DHT22;12319;49.204;8.116;2023-02-26T18:13:57;3.60;56.80
24164;DHT22;12319;49.204;8.116;2023-02-26T18:16:29;3.60;56.90
24164;DHT22;12319;49.204;8.116;2023-02-26T18:18:56;3.60;57.30
24164;DHT22;12319;49.204;8.116;2023-02-26T18:21:23;3.60;57.20
24164;DHT22;12319;49.204;8.116;2023-02-26T18:23:50;3.60;57.20
24164;DHT22;12319;49.204;8.116;2023-02-26T18:26:18;3.50;57.50
24164;DHT22;12319;49.204;8.116;2023-02-26T18:28:47;3.50;57.50
24164;DHT22;12319;49.204;8.116;2023-02-26T18:31:14;3.50;57.50
24164;DHT22;12319;49.204;8.116;2023-02-26T18:33:40;3.50;57.50
24164;DHT22;12319;49.204;8.116;2023-02-26T18:36:15;3.50;57.50
24164;DHT22;12319;49.204;8.116;2023-02-26T18:38:41;3.50;57.60
24164;DHT22;12319;49.204;8.116;2023-02-26T18:41:07;3.50;57.60
24164;DHT22;12319;49.204;8.116;2023-02-26T18:43:33;3.40;57.60
24164;DHT22;12319;49.204;8.116;2023-02-26T18:45:58;3.40;57.70
24164;DHT22;12319;49.204;8.116;2023-02-26T18:48:26;3.40;57.70
24164;DHT22;12319;49.204;8.116;2023-02-26T18:50:52;3.40;57.80
24164;DHT22;12319;49.204;8.116;2023-02-26T18:53:20;3.40;57.80